Flood From: 21-02-2018 18:00 Until: 22-02-2018 16:00 warning for: Flood Level: Yellow info button

Although rather usual in this region, locally or potentially dangerous phenomena are expected. (such as local winds, summer thunderstorms, rising streams or high waves) Be aware and pay attention to the latest weather updates, especially if you carry out activities exposed to weather or close to a stream or shoreline. 


Meteo18 Weather Cam more information Meteo18 Weather Cam


Thunder radar more information blitzortung!


Rain radar more information rain snow radar


Visit our other weather sites:

Template documentation
and downloads

And another site



Weather Underground History page Text

Daily Summary for January 8, 2018 Units:  Both    English   Metric
« Previous Day
Next Day »
Daily Weekly Monthly Yearly Custom
  High: Low: Average:
Temperature: TemperatureC °F /  -17.8 °C 4.3 °F /  -15.4 °C 6 °F /  -14.4 °C
Dew Point: DewpointC °F /  -17.8 °C 3.6 °F /  -15.8 °C 4.9 °F /  -15.1 °C
Humidity: Humidity % 86 % 92 %
Wind Speed: WindSpeedKMH mph /  0 km/h - 3 mph /  4.8 km/h
Wind Gust: WindSpeedGustKMH mph /  0 km/h - -
Wind:- - ESE
Pressure: PressurehPa in /  0 hPa 1009.7 in /  34188.4 hPa -
Precipitation: 0.3 in /  7.62 mm    
Historical Graphs
 
 
Tabular Data for January 8, 2018
Time Temperature Dew Point Pressure Wind Wind Speed Wind Gust Humidity Rainfall Rate (Hourly)
TemperatureC °F /  -17.8 °C DewpointC °F /  -17.8 °C PressurehPa in /  0 hPa Calm     Humidity % HourlyPrecipMM in /  0 mm
02:07 5.3 °F /  -14.8 °C 4.3 °F /  -15.4 °C 1014.4 in /  34347.6 hPa NNE 7.9 mph /  12.7 km/h 8.0 mph /  12.9 km/h 93 % 0.0 in /  0 mm
04:08 5.4 °F /  -14.8 °C 4.5 °F /  -15.3 °C 1015.1 in /  34371.3 hPa NE 3.2 mph /  5.1 km/h 6.4 mph /  10.3 km/h 94 % 0.0 in /  0 mm
04:14 5.4 °F /  -14.8 °C 4.5 °F /  -15.3 °C 1015.1 in /  34371.3 hPa Calm   1.6 mph /  2.6 km/h 94 % 0.0 in /  0 mm
04:20 5.5 °F /  -14.7 °C 4.6 °F /  -15.2 °C 1015.1 in /  34371.3 hPa NE 4.7 mph /  7.6 km/h 6.4 mph /  10.3 km/h 94 % 0.0 in /  0 mm
04:26 5.6 °F /  -14.7 °C 4.7 °F /  -15.2 °C 1015.1 in /  34371.3 hPa NNE 7.9 mph /  12.7 km/h 9.7 mph /  15.6 km/h 94 % 0.0 in /  0 mm
04:32 5.7 °F /  -14.6 °C 4.8 °F /  -15.1 °C 1015.1 in /  34371.3 hPa NNE 4.7 mph /  7.6 km/h 9.7 mph /  15.6 km/h 94 % 0.0 in /  0 mm
04:40 5.8 °F /  -14.6 °C 4.8 °F /  -15.1 °C 1015.1 in /  34371.3 hPa North 6.4 mph /  10.3 km/h 8.0 mph /  12.9 km/h 93 % 0.0 in /  0 mm
04:46 5.8 °F /  -14.6 °C 4.8 °F /  -15.1 °C 1015.1 in /  34371.3 hPa NE 4.7 mph /  7.6 km/h 6.4 mph /  10.3 km/h 93 % 0.0 in /  0 mm
04:56 5.9 °F /  -14.5 °C 4.9 °F /  -15.1 °C 1015.1 in /  34371.3 hPa ENE 1.4 mph /  2.3 km/h 4.8 mph /  7.7 km/h 93 % 0.0 in /  0 mm
05:00 6.0 °F /  -14.4 °C 5.0 °F /  -15 °C 1015.1 in /  34371.3 hPa Calm   3.2 mph /  5.1 km/h 93 % 0.0 in /  0 mm
05:10 6.4 °F /  -14.2 °C 5.4 °F /  -14.8 °C 1015.5 in /  34384.8 hPa Calm   4.8 mph /  7.7 km/h 93 % 0.0 in /  0 mm
05:14 6.4 °F /  -14.2 °C 5.2 °F /  -14.9 °C 1015.5 in /  34384.8 hPa NE 1.4 mph /  2.3 km/h 6.4 mph /  10.3 km/h 92 % 0.0 in /  0 mm
05:16 6.4 °F /  -14.2 °C 5.2 °F /  -14.9 °C 1015.5 in /  34384.8 hPa NNE 6.4 mph /  10.3 km/h 6.4 mph /  10.3 km/h 92 % 0.0 in /  0 mm
05:24 6.5 °F /  -14.2 °C 5.3 °F /  -14.8 °C 1015.5 in /  34384.8 hPa ENE 1.4 mph /  2.3 km/h 4.8 mph /  7.7 km/h 92 % 0.0 in /  0 mm
05:30 6.6 °F /  -14.1 °C 5.2 °F /  -14.9 °C 1015.5 in /  34384.8 hPa Calm   6.4 mph /  10.3 km/h 91 % 0.0 in /  0 mm
05:36 6.7 °F /  -14.1 °C 5.3 °F /  -14.8 °C 1015.5 in /  34384.8 hPa NE 4.7 mph /  7.6 km/h 6.4 mph /  10.3 km/h 91 % 0.0 in /  0 mm
05:42 6.8 °F /  -14 °C 5.3 °F /  -14.8 °C 1015.1 in /  34371.3 hPa NNE 11.1 mph /  17.9 km/h 11.3 mph /  18.2 km/h 90 % 0.0 in /  0 mm
05:49 6.8 °F /  -14 °C 5.3 °F /  -14.8 °C 1015.1 in /  34371.3 hPa NNE 6.4 mph /  10.3 km/h 12.9 mph /  20.8 km/h 90 % 0.0 in /  0 mm
05:50 7.1 °F /  -13.8 °C 5.6 °F /  -14.7 °C 1014.8 in /  34361.1 hPa ENE 3.2 mph /  5.1 km/h 12.9 mph /  20.8 km/h 90 % 0.0 in /  0 mm
05:56 7.3 °F /  -13.7 °C 5.8 °F /  -14.6 °C 1014.8 in /  34361.1 hPa ENE 6.4 mph /  10.3 km/h 8.0 mph /  12.9 km/h 90 % 0.0 in /  0 mm
06:02 7.6 °F /  -13.6 °C 6.1 °F /  -14.4 °C 1014.8 in /  34361.1 hPa North 4.7 mph /  7.6 km/h 6.4 mph /  10.3 km/h 90 % 0.0 in /  0 mm
06:04 7.7 °F /  -13.5 °C 6.0 °F /  -14.4 °C 1014.4 in /  34347.6 hPa NNE 3.2 mph /  5.1 km/h 11.3 mph /  18.2 km/h 89 % 0.0 in /  0 mm
06:10 7.7 °F /  -13.5 °C 6.0 °F /  -14.4 °C 1014.4 in /  34347.6 hPa ENE 1.4 mph /  2.3 km/h 9.7 mph /  15.6 km/h 89 % 0.0 in /  0 mm
06:16 7.7 °F /  -13.5 °C 6.0 °F /  -14.4 °C 1014.4 in /  34347.6 hPa NNW 4.7 mph /  7.6 km/h 11.3 mph /  18.2 km/h 89 % 0.0 in /  0 mm
06:26 7.7 °F /  -13.5 °C 6.0 °F /  -14.4 °C 1014.1 in /  34337.4 hPa NE 6.4 mph /  10.3 km/h 11.3 mph /  18.2 km/h 89 % 0.0 in /  0 mm
06:30 7.7 °F /  -13.5 °C 5.8 °F /  -14.6 °C 1014.4 in /  34347.6 hPa NE 9.7 mph /  15.6 km/h 11.3 mph /  18.2 km/h 88 % 0.0 in /  0 mm
06:38 7.6 °F /  -13.6 °C 5.7 °F /  -14.6 °C 1014.1 in /  34337.4 hPa North 3.2 mph /  5.1 km/h 11.3 mph /  18.2 km/h 88 % 0.0 in /  0 mm
06:44 7.6 °F /  -13.6 °C 5.7 °F /  -14.6 °C 1014.4 in /  34347.6 hPa ENE 3.2 mph /  5.1 km/h 6.4 mph /  10.3 km/h 88 % 0.0 in /  0 mm
06:46 7.7 °F /  -13.5 °C 5.8 °F /  -14.6 °C 1014.4 in /  34347.6 hPa East 1.4 mph /  2.3 km/h 4.8 mph /  7.7 km/h 88 % 0.0 in /  0 mm
06:50 7.8 °F /  -13.4 °C 5.9 °F /  -14.5 °C 1014.4 in /  34347.6 hPa East 1.4 mph /  2.3 km/h 4.8 mph /  7.7 km/h 88 % 0.0 in /  0 mm
06:56 7.8 °F /  -13.4 °C 5.9 °F /  -14.5 °C 1014.4 in /  34347.6 hPa ENE 4.7 mph /  7.6 km/h 9.7 mph /  15.6 km/h 88 % 0.0 in /  0 mm
07:02 7.7 °F /  -13.5 °C 5.8 °F /  -14.6 °C 1014.4 in /  34347.6 hPa East 4.7 mph /  7.6 km/h 8.0 mph /  12.9 km/h 88 % 0.0 in /  0 mm
07:06 7.7 °F /  -13.5 °C 5.8 °F /  -14.6 °C 1014.4 in /  34347.6 hPa ENE 1.4 mph /  2.3 km/h 3.2 mph /  5.1 km/h 88 % 0.0 in /  0 mm
07:14 7.8 °F /  -13.4 °C 5.9 °F /  -14.5 °C 1014.1 in /  34337.4 hPa East 3.2 mph /  5.1 km/h 9.7 mph /  15.6 km/h 88 % 0.0 in /  0 mm
07:18 7.9 °F /  -13.4 °C 6.2 °F /  -14.3 °C 1014.1 in /  34337.4 hPa NE 6.4 mph /  10.3 km/h 6.4 mph /  10.3 km/h 89 % 0.0 in /  0 mm
07:24 7.9 °F /  -13.4 °C 6.0 °F /  -14.4 °C 1014.1 in /  34337.4 hPa NNW 4.7 mph /  7.6 km/h 8.0 mph /  12.9 km/h 88 % 0.0 in /  0 mm
07:26 7.9 °F /  -13.4 °C 6.0 °F /  -14.4 °C 1014.1 in /  34337.4 hPa NE 7.9 mph /  12.7 km/h 9.7 mph /  15.6 km/h 88 % 0.0 in /  0 mm
07:34 7.8 °F /  -13.4 °C 5.9 °F /  -14.5 °C 1014.1 in /  34337.4 hPa NNE 9.7 mph /  15.6 km/h 12.9 mph /  20.8 km/h 88 % 0.0 in /  0 mm
07:42 7.8 °F /  -13.4 °C 6.1 °F /  -14.4 °C 1013.4 in /  34313.7 hPa North 11.1 mph /  17.9 km/h 11.3 mph /  18.2 km/h 89 % 0.0 in /  0 mm
07:54 8.1 °F /  -13.3 °C 6.2 °F /  -14.3 °C 1013.4 in /  34313.7 hPa NNE 11.1 mph /  17.9 km/h 12.9 mph /  20.8 km/h 88 % 0.0 in /  0 mm
08:08 8.2 °F /  -13.2 °C 6.3 °F /  -14.3 °C 1013.1 in /  34303.6 hPa NNE 9.7 mph /  15.6 km/h 16.1 mph /  25.9 km/h 88 % 0.0 in /  0 mm
08:16 8.2 °F /  -13.2 °C 6.3 °F /  -14.3 °C 1012.8 in /  34293.4 hPa NNE 13.0 mph /  20.9 km/h 17.7 mph /  28.5 km/h 88 % 0.0 in /  0 mm
08:20 8.2 °F /  -13.2 °C 6.3 °F /  -14.3 °C 1012.8 in /  34293.4 hPa NNW 7.9 mph /  12.7 km/h 19.3 mph /  31.1 km/h 88 % 0.0 in /  0 mm
08:31 8.2 °F /  -13.2 °C 6.3 °F /  -14.3 °C 1012.8 in /  34293.4 hPa ENE 6.4 mph /  10.3 km/h 14.5 mph /  23.3 km/h 88 % 0.0 in /  0 mm
08:56 8.4 °F /  -13.1 °C 6.4 °F /  -14.2 °C 1012.4 in /  34279.9 hPa NNW 6.4 mph /  10.3 km/h 22.5 mph /  36.2 km/h 87 % 0.0 in /  0 mm
09:02 8.4 °F /  -13.1 °C 6.4 °F /  -14.2 °C 1012.1 in /  34269.7 hPa NE 14.3 mph /  23 km/h 20.9 mph /  33.6 km/h 87 % 0.0 in /  0 mm
09:10 8.5 °F /  -13.1 °C 6.3 °F /  -14.3 °C 1012.4 in /  34279.9 hPa North 9.7 mph /  15.6 km/h 24.1 mph /  38.8 km/h 86 % 0.0 in /  0 mm
09:26 8.5 °F /  -13.1 °C 6.3 °F /  -14.3 °C 1012.4 in /  34279.9 hPa NNE 16.3 mph /  26.2 km/h 17.7 mph /  28.5 km/h 86 % 0.0 in /  0 mm
10:37 8.6 °F /  -13 °C 6.6 °F /  -14.1 °C 1013.4 in /  34313.7 hPa Calm   3.2 mph /  5.1 km/h 87 % 0.0 in /  0 mm
10:38 8.5 °F /  -13.1 °C 6.5 °F /  -14.2 °C 1013.4 in /  34313.7 hPa ESE 1.4 mph /  2.3 km/h 3.2 mph /  5.1 km/h 87 % 0.0 in /  0 mm
10:59 8.3 °F /  -13.2 °C 6.3 °F /  -14.3 °C 1012.8 in /  34293.4 hPa NNE 4.7 mph /  7.6 km/h 4.8 mph /  7.7 km/h 87 % 0.0 in /  0 mm
11:14 7.6 °F /  -13.6 °C 5.9 °F /  -14.5 °C 1012.8 in /  34293.4 hPa NNE 3.2 mph /  5.1 km/h 8.0 mph /  12.9 km/h 89 % 0.0 in /  0 mm
11:25 7.6 °F /  -13.6 °C 6.1 °F /  -14.4 °C 1012.8 in /  34293.4 hPa North 4.7 mph /  7.6 km/h 9.7 mph /  15.6 km/h 90 % 0.0 in /  0 mm
11:31 7.3 °F /  -13.7 °C 5.8 °F /  -14.6 °C 1012.4 in /  34279.9 hPa North 4.7 mph /  7.6 km/h 11.3 mph /  18.2 km/h 90 % 0.0 in /  0 mm
11:37 7.3 °F /  -13.7 °C 5.8 °F /  -14.6 °C 1012.4 in /  34279.9 hPa North 3.2 mph /  5.1 km/h 8.0 mph /  12.9 km/h 90 % 0.0 in /  0 mm
11:43 7.3 °F /  -13.7 °C 5.8 °F /  -14.6 °C 1012.8 in /  34293.4 hPa North 7.9 mph /  12.7 km/h 12.9 mph /  20.8 km/h 90 % 0.0 in /  0 mm
11:45 7.3 °F /  -13.7 °C 5.8 °F /  -14.6 °C 1012.4 in /  34279.9 hPa NNE 6.4 mph /  10.3 km/h 8.0 mph /  12.9 km/h 90 % 0.0 in /  0 mm
11:49 7.3 °F /  -13.7 °C 5.8 °F /  -14.6 °C 1012.4 in /  34279.9 hPa NE 7.9 mph /  12.7 km/h 11.3 mph /  18.2 km/h 90 % 0.0 in /  0 mm
11:55 7.2 °F /  -13.8 °C 5.8 °F /  -14.6 °C 1012.4 in /  34279.9 hPa NNE 13.0 mph /  20.9 km/h 13.0 mph /  20.9 km/h 91 % 0.0 in /  0 mm
12:01 7.2 °F /  -13.8 °C 5.8 °F /  -14.6 °C 1012.4 in /  34279.9 hPa NE 6.4 mph /  10.3 km/h 9.7 mph /  15.6 km/h 91 % 0.0 in /  0 mm
12:05 7.3 °F /  -13.7 °C 5.9 °F /  -14.5 °C 1012.4 in /  34279.9 hPa North 6.4 mph /  10.3 km/h 14.5 mph /  23.3 km/h 91 % 0.0 in /  0 mm
12:11 7.3 °F /  -13.7 °C 5.9 °F /  -14.5 °C 1012.8 in /  34293.4 hPa NE 6.4 mph /  10.3 km/h 6.4 mph /  10.3 km/h 91 % 0.0 in /  0 mm
12:17 7.2 °F /  -13.8 °C 5.8 °F /  -14.6 °C 1012.8 in /  34293.4 hPa NNW 3.2 mph /  5.1 km/h 4.8 mph /  7.7 km/h 91 % 0.0 in /  0 mm
12:25 7.2 °F /  -13.8 °C 5.8 °F /  -14.6 °C 1012.8 in /  34293.4 hPa NNW 3.2 mph /  5.1 km/h 8.0 mph /  12.9 km/h 91 % 0.0 in /  0 mm
12:29 7.2 °F /  -13.8 °C 5.8 °F /  -14.6 °C 1012.8 in /  34293.4 hPa NNE 4.7 mph /  7.6 km/h 4.8 mph /  7.7 km/h 91 % 0.0 in /  0 mm
12:37 7.1 °F /  -13.8 °C 5.7 °F /  -14.6 °C 1012.8 in /  34293.4 hPa NNW 3.2 mph /  5.1 km/h 4.8 mph /  7.7 km/h 91 % 0.0 in /  0 mm
12:41 7.1 °F /  -13.8 °C 5.7 °F /  -14.6 °C 1012.8 in /  34293.4 hPa NNE 4.7 mph /  7.6 km/h 9.7 mph /  15.6 km/h 91 % 0.0 in /  0 mm
12:47 7.1 °F /  -13.8 °C 5.7 °F /  -14.6 °C 1012.8 in /  34293.4 hPa NNE 6.4 mph /  10.3 km/h 11.3 mph /  18.2 km/h 91 % 0.0 in /  0 mm
12:53 7.1 °F /  -13.8 °C 5.7 °F /  -14.6 °C 1012.8 in /  34293.4 hPa NE 4.7 mph /  7.6 km/h 12.9 mph /  20.8 km/h 91 % 0.0 in /  0 mm
12:59 7.1 °F /  -13.8 °C 5.6 °F /  -14.7 °C 1012.8 in /  34293.4 hPa NNE 1.4 mph /  2.3 km/h 11.3 mph /  18.2 km/h 90 % 0.0 in /  0 mm
13:07 7.1 °F /  -13.8 °C 5.6 °F /  -14.7 °C 1012.8 in /  34293.4 hPa NNW 4.7 mph /  7.6 km/h 9.7 mph /  15.6 km/h 90 % 0.0 in /  0 mm
13:15 6.9 °F /  -13.9 °C 5.5 °F /  -14.7 °C 1012.8 in /  34293.4 hPa NE 1.4 mph /  2.3 km/h 8.0 mph /  12.9 km/h 91 % 0.0 in /  0 mm
13:21 6.9 °F /  -13.9 °C 5.5 °F /  -14.7 °C 1012.8 in /  34293.4 hPa North 4.7 mph /  7.6 km/h 9.7 mph /  15.6 km/h 91 % 0.0 in /  0 mm
13:23 6.8 °F /  -14 °C 5.4 °F /  -14.8 °C 1012.8 in /  34293.4 hPa NE 6.4 mph /  10.3 km/h 9.7 mph /  15.6 km/h 91 % 0.0 in /  0 mm
13:29 6.8 °F /  -14 °C 5.4 °F /  -14.8 °C 1012.4 in /  34279.9 hPa NE 1.4 mph /  2.3 km/h 6.4 mph /  10.3 km/h 91 % 0.0 in /  0 mm
13:35 6.8 °F /  -14 °C 5.4 °F /  -14.8 °C 1012.4 in /  34279.9 hPa NNW 1.4 mph /  2.3 km/h 6.4 mph /  10.3 km/h 91 % 0.0 in /  0 mm
13:41 6.8 °F /  -14 °C 5.3 °F /  -14.8 °C 1012.4 in /  34279.9 hPa NNE 3.2 mph /  5.1 km/h 4.8 mph /  7.7 km/h 90 % 0.0 in /  0 mm
13:47 6.8 °F /  -14 °C 5.4 °F /  -14.8 °C 1012.4 in /  34279.9 hPa Calm   6.4 mph /  10.3 km/h 91 % 0.0 in /  0 mm
14:03 6.7 °F /  -14.1 °C 5.3 °F /  -14.8 °C 1012.4 in /  34279.9 hPa North 4.7 mph /  7.6 km/h 12.9 mph /  20.8 km/h 91 % 0.0 in /  0 mm
14:09 6.7 °F /  -14.1 °C 5.3 °F /  -14.8 °C 1012.4 in /  34279.9 hPa NE 7.9 mph /  12.7 km/h 9.7 mph /  15.6 km/h 91 % 0.0 in /  0 mm
14:15 6.7 °F /  -14.1 °C 5.2 °F /  -14.9 °C 1012.4 in /  34279.9 hPa NE 4.7 mph /  7.6 km/h 8.0 mph /  12.9 km/h 90 % 0.0 in /  0 mm
14:17 6.7 °F /  -14.1 °C 5.2 °F /  -14.9 °C 1012.4 in /  34279.9 hPa NNE 1.4 mph /  2.3 km/h 4.8 mph /  7.7 km/h 90 % 0.0 in /  0 mm
14:25 6.7 °F /  -14.1 °C 5.3 °F /  -14.8 °C 1012.4 in /  34279.9 hPa NNE 1.4 mph /  2.3 km/h 1.6 mph /  2.6 km/h 91 % 0.0 in /  0 mm
14:41 6.6 °F /  -14.1 °C 5.1 °F /  -14.9 °C 1012.4 in /  34279.9 hPa Calm   1.6 mph /  2.6 km/h 90 % 0.0 in /  0 mm
14:47 6.6 °F /  -14.1 °C 5.2 °F /  -14.9 °C 1012.4 in /  34279.9 hPa Calm   1.6 mph /  2.6 km/h 91 % 0.0 in /  0 mm
14:53 6.4 °F /  -14.2 °C 5.0 °F /  -15 °C 1012.4 in /  34279.9 hPa North 4.7 mph /  7.6 km/h 4.8 mph /  7.7 km/h 91 % 0.0 in /  0 mm
15:01 6.4 °F /  -14.2 °C 5.0 °F /  -15 °C 1012.4 in /  34279.9 hPa North 1.4 mph /  2.3 km/h 6.4 mph /  10.3 km/h 91 % 0.0 in /  0 mm
16:28 5.9 °F /  -14.5 °C 4.7 °F /  -15.2 °C 1011.7 in /  34256.2 hPa ENE 3.2 mph /  5.1 km/h 8.0 mph /  12.9 km/h 92 % 0.0 in /  0 mm
17:22 5.6 °F /  -14.7 °C 4.6 °F /  -15.2 °C 1011.4 in /  34246 hPa NNE 1.4 mph /  2.3 km/h 3.2 mph /  5.1 km/h 93 % 0.0 in /  0 mm
17:26 5.6 °F /  -14.7 °C 4.6 °F /  -15.2 °C 1011.4 in /  34246 hPa Calm   1.6 mph /  2.6 km/h 93 % 0.0 in /  0 mm
17:34 5.4 °F /  -14.8 °C 4.4 °F /  -15.3 °C 1011.4 in /  34246 hPa Calm   1.6 mph /  2.6 km/h 93 % 0.0 in /  0 mm
17:52 5.0 °F /  -15 °C 4.0 °F /  -15.6 °C 1011.7 in /  34256.2 hPa Calm     93 % 0.0 in /  0 mm
18:04 4.8 °F /  -15.1 °C 3.9 °F /  -15.6 °C 1011.4 in /  34246 hPa WNW 1.4 mph /  2.3 km/h 1.6 mph /  2.6 km/h 94 % 0.0 in /  0 mm
18:16 4.8 °F /  -15.1 °C 4.1 °F /  -15.5 °C 1011.4 in /  34246 hPa Calm   1.6 mph /  2.6 km/h 95 % 0.0 in /  0 mm
18:24 4.8 °F /  -15.1 °C 4.1 °F /  -15.5 °C 1011.7 in /  34256.2 hPa Calm     95 % 0.0 in /  0 mm
18:26 4.8 °F /  -15.1 °C 3.9 °F /  -15.6 °C 1011.7 in /  34256.2 hPa Calm     94 % 0.0 in /  0 mm
18:34 4.7 °F /  -15.2 °C 4.0 °F /  -15.6 °C 1011.7 in /  34256.2 hPa Calm     95 % 0.0 in /  0 mm
18:38 4.7 °F /  -15.2 °C 4.0 °F /  -15.6 °C 1012.1 in /  34269.7 hPa Calm     95 % 0.0 in /  0 mm
18:46 4.7 °F /  -15.2 °C 4.0 °F /  -15.6 °C 1011.7 in /  34256.2 hPa Calm   1.6 mph /  2.6 km/h 95 % 0.0 in /  0 mm
18:50 4.7 °F /  -15.2 °C 4.0 °F /  -15.6 °C 1011.7 in /  34256.2 hPa Calm     95 % 0.0 in /  0 mm
18:52 4.7 °F /  -15.2 °C 4.0 °F /  -15.6 °C 1011.7 in /  34256.2 hPa Calm     95 % 0.0 in /  0 mm
18:58 4.7 °F /  -15.2 °C 4.0 °F /  -15.6 °C 1011.7 in /  34256.2 hPa Calm     95 % 0.0 in /  0 mm
19:09 4.7 °F /  -15.2 °C 4.0 °F /  -15.6 °C 1011.4 in /  34246 hPa Calm     95 % 0.0 in /  0 mm
19:10 4.6 °F /  -15.2 °C 3.9 °F /  -15.6 °C 1011.4 in /  34246 hPa Calm     95 % 0.0 in /  0 mm
19:16 4.6 °F /  -15.2 °C 3.9 °F /  -15.6 °C 1011.1 in /  34235.8 hPa WNW 1.4 mph /  2.3 km/h 3.2 mph /  5.1 km/h 95 % 0.0 in /  0 mm
19:20 4.4 °F /  -15.3 °C 3.7 °F /  -15.7 °C 1011.1 in /  34235.8 hPa Calm   1.6 mph /  2.6 km/h 95 % 0.0 in /  0 mm
19:22 4.4 °F /  -15.3 °C 3.7 °F /  -15.7 °C 1011.1 in /  34235.8 hPa Calm     95 % 0.0 in /  0 mm
19:30 4.4 °F /  -15.3 °C 3.7 °F /  -15.7 °C 1010.7 in /  34222.3 hPa WNW 1.4 mph /  2.3 km/h 1.6 mph /  2.6 km/h 95 % 0.0 in /  0 mm
19:34 4.3 °F /  -15.4 °C 3.6 °F /  -15.8 °C 1010.7 in /  34222.3 hPa Calm   1.6 mph /  2.6 km/h 95 % 0.0 in /  0 mm
19:36 4.3 °F /  -15.4 °C 3.6 °F /  -15.8 °C 1010.7 in /  34222.3 hPa Calm   1.6 mph /  2.6 km/h 95 % 0.0 in /  0 mm
19:40 4.3 °F /  -15.4 °C 3.7 °F /  -15.7 °C 1011.1 in /  34235.8 hPa Calm   1.6 mph /  2.6 km/h 96 % 0.0 in /  0 mm
19:44 4.4 °F /  -15.3 °C 3.8 °F /  -15.7 °C 1011.1 in /  34235.8 hPa Calm   1.6 mph /  2.6 km/h 96 % 0.0 in /  0 mm
19:46 4.5 °F /  -15.3 °C 3.9 °F /  -15.6 °C 1011.1 in /  34235.8 hPa Calm   1.6 mph /  2.6 km/h 96 % 0.0 in /  0 mm
19:50 4.5 °F /  -15.3 °C 3.9 °F /  -15.6 °C 1011.4 in /  34246 hPa ENE 4.7 mph /  7.6 km/h 4.8 mph /  7.7 km/h 96 % 0.0 in /  0 mm
19:52 4.5 °F /  -15.3 °C 3.9 °F /  -15.6 °C 1011.7 in /  34256.2 hPa ENE 6.4 mph /  10.3 km/h 6.4 mph /  10.3 km/h 96 % 0.0 in /  0 mm
19:54 4.6 °F /  -15.2 °C 4.0 °F /  -15.6 °C 1011.7 in /  34256.2 hPa ENE 6.4 mph /  10.3 km/h 8.0 mph /  12.9 km/h 96 % 0.0 in /  0 mm
20:00 4.8 °F /  -15.1 °C 4.2 °F /  -15.4 °C 1011.7 in /  34256.2 hPa East 4.7 mph /  7.6 km/h 4.8 mph /  7.7 km/h 96 % 0.0 in /  0 mm
20:02 4.9 °F /  -15.1 °C 4.3 °F /  -15.4 °C 1011.7 in /  34256.2 hPa ESE 3.2 mph /  5.1 km/h 6.4 mph /  10.3 km/h 96 % 0.0 in /  0 mm
20:04 5.1 °F /  -14.9 °C 4.5 °F /  -15.3 °C 1011.7 in /  34256.2 hPa Calm   4.8 mph /  7.7 km/h 96 % 0.0 in /  0 mm
20:08 5.2 °F /  -14.9 °C 4.6 °F /  -15.2 °C 1011.7 in /  34256.2 hPa Calm   6.4 mph /  10.3 km/h 96 % 0.0 in /  0 mm
20:10 5.3 °F /  -14.8 °C 4.7 °F /  -15.2 °C 1011.7 in /  34256.2 hPa Calm   3.2 mph /  5.1 km/h 96 % 0.0 in /  0 mm
20:18 5.3 °F /  -14.8 °C 4.6 °F /  -15.2 °C 1011.7 in /  34256.2 hPa Calm   1.6 mph /  2.6 km/h 95 % 0.0 in /  0 mm
20:24 5.2 °F /  -14.9 °C 4.5 °F /  -15.3 °C 1011.7 in /  34256.2 hPa Calm   1.6 mph /  2.6 km/h 95 % 0.0 in /  0 mm
20:26 5.1 °F /  -14.9 °C 4.4 °F /  -15.3 °C 1011.7 in /  34256.2 hPa Calm   1.6 mph /  2.6 km/h 95 % 0.0 in /  0 mm
20:27 5.2 °F /  -14.9 °C 4.5 °F /  -15.3 °C 1011.7 in /  34256.2 hPa Calm   1.6 mph /  2.6 km/h 95 % 0.0 in /  0 mm
20:28 5.2 °F /  -14.9 °C 4.5 °F /  -15.3 °C 1011.7 in /  34256.2 hPa Calm     95 % 0.0 in /  0 mm
20:32 5.2 °F /  -14.9 °C 4.5 °F /  -15.3 °C 1011.7 in /  34256.2 hPa SW 3.2 mph /  5.1 km/h 4.8 mph /  7.7 km/h 95 % 0.0 in /  0 mm
20:36 5.3 °F /  -14.8 °C 4.6 °F /  -15.2 °C 1011.4 in /  34246 hPa SW 3.2 mph /  5.1 km/h 3.2 mph /  5.1 km/h 95 % 0.0 in /  0 mm
20:44 5.3 °F /  -14.8 °C 4.6 °F /  -15.2 °C 1011.4 in /  34246 hPa SW 3.2 mph /  5.1 km/h 6.4 mph /  10.3 km/h 95 % 0.0 in /  0 mm
20:48 5.4 °F /  -14.8 °C 4.7 °F /  -15.2 °C 1011.4 in /  34246 hPa SW 4.7 mph /  7.6 km/h 6.4 mph /  10.3 km/h 95 % 0.0 in /  0 mm
20:51 5.4 °F /  -14.8 °C 4.7 °F /  -15.2 °C 1011.4 in /  34246 hPa SW 6.4 mph /  10.3 km/h 6.4 mph /  10.3 km/h 95 % 0.0 in /  0 mm
20:52 5.5 °F /  -14.7 °C 4.8 °F /  -15.1 °C 1011.7 in /  34256.2 hPa SW 4.7 mph /  7.6 km/h 9.7 mph /  15.6 km/h 95 % 0.0 in /  0 mm
20:58 5.6 °F /  -14.7 °C 4.7 °F /  -15.2 °C 1011.7 in /  34256.2 hPa SW 7.9 mph /  12.7 km/h 11.3 mph /  18.2 km/h 94 % 0.0 in /  0 mm
21:00 5.6 °F /  -14.7 °C 4.7 °F /  -15.2 °C 1011.7 in /  34256.2 hPa SSW 4.7 mph /  7.6 km/h 11.3 mph /  18.2 km/h 94 % 0.0 in /  0 mm
21:04 5.6 °F /  -14.7 °C 4.7 °F /  -15.2 °C 1011.7 in /  34256.2 hPa SW 6.4 mph /  10.3 km/h 11.3 mph /  18.2 km/h 94 % 0.0 in /  0 mm
21:10 5.6 °F /  -14.7 °C 4.7 °F /  -15.2 °C 1011.7 in /  34256.2 hPa SSW 3.2 mph /  5.1 km/h 8.0 mph /  12.9 km/h 94 % 0.0 in /  0 mm
21:14 5.6 °F /  -14.7 °C 4.7 °F /  -15.2 °C 1011.7 in /  34256.2 hPa SW 3.2 mph /  5.1 km/h 6.4 mph /  10.3 km/h 94 % 0.0 in /  0 mm
21:20 5.6 °F /  -14.7 °C 4.7 °F /  -15.2 °C 1011.7 in /  34256.2 hPa SSW 1.4 mph /  2.3 km/h 6.4 mph /  10.3 km/h 94 % 0.0 in /  0 mm
21:28 5.5 °F /  -14.7 °C 4.6 °F /  -15.2 °C 1011.4 in /  34246 hPa Calm   3.2 mph /  5.1 km/h 94 % 0.0 in /  0 mm
21:30 5.4 °F /  -14.8 °C 4.5 °F /  -15.3 °C 1011.4 in /  34246 hPa SSW 1.4 mph /  2.3 km/h 1.6 mph /  2.6 km/h 94 % 0.0 in /  0 mm
21:32 5.4 °F /  -14.8 °C 4.5 °F /  -15.3 °C 1011.4 in /  34246 hPa SSW 1.4 mph /  2.3 km/h 3.2 mph /  5.1 km/h 94 % 0.0 in /  0 mm
21:34 5.4 °F /  -14.8 °C 4.5 °F /  -15.3 °C 1011.4 in /  34246 hPa SSW 1.4 mph /  2.3 km/h 3.2 mph /  5.1 km/h 94 % 0.0 in /  0 mm
21:36 5.4 °F /  -14.8 °C 4.5 °F /  -15.3 °C 1011.4 in /  34246 hPa Calm   3.2 mph /  5.1 km/h 94 % 0.0 in /  0 mm
21:40 5.4 °F /  -14.8 °C 4.5 °F /  -15.3 °C 1011.1 in /  34235.8 hPa SW 3.2 mph /  5.1 km/h 3.2 mph /  5.1 km/h 94 % 0.0 in /  0 mm
21:42 5.3 °F /  -14.8 °C 4.6 °F /  -15.2 °C 1011.1 in /  34235.8 hPa SW 1.4 mph /  2.3 km/h 3.2 mph /  5.1 km/h 95 % 0.0 in /  0 mm
21:50 5.3 °F /  -14.8 °C 4.6 °F /  -15.2 °C 1011.1 in /  34235.8 hPa SSW 1.4 mph /  2.3 km/h 4.8 mph /  7.7 km/h 95 % 0.0 in /  0 mm
21:56 5.4 °F /  -14.8 °C 4.7 °F /  -15.2 °C 1010.7 in /  34222.3 hPa SW 3.2 mph /  5.1 km/h 6.4 mph /  10.3 km/h 95 % 0.0 in /  0 mm
21:57 5.4 °F /  -14.8 °C 4.7 °F /  -15.2 °C 1010.7 in /  34222.3 hPa SSW 4.7 mph /  7.6 km/h 4.8 mph /  7.7 km/h 95 % 0.0 in /  0 mm
22:04 5.4 °F /  -14.8 °C 4.7 °F /  -15.2 °C 1010.7 in /  34222.3 hPa SSW 3.2 mph /  5.1 km/h 4.8 mph /  7.7 km/h 95 % 0.0 in /  0 mm
22:06 5.3 °F /  -14.8 °C 4.6 °F /  -15.2 °C 1010.7 in /  34222.3 hPa SSW 1.4 mph /  2.3 km/h 3.2 mph /  5.1 km/h 95 % 0.0 in /  0 mm
22:08 5.3 °F /  -14.8 °C 4.6 °F /  -15.2 °C 1010.7 in /  34222.3 hPa SSW 1.4 mph /  2.3 km/h 3.2 mph /  5.1 km/h 95 % 0.0 in /  0 mm
22:10 5.3 °F /  -14.8 °C 4.6 °F /  -15.2 °C 1010.7 in /  34222.3 hPa SSW 1.4 mph /  2.3 km/h 4.8 mph /  7.7 km/h 95 % 0.0 in /  0 mm
22:16 5.2 °F /  -14.9 °C 4.5 °F /  -15.3 °C 1010.7 in /  34222.3 hPa SW 1.4 mph /  2.3 km/h 1.6 mph /  2.6 km/h 95 % 0.0 in /  0 mm
22:20 5.2 °F /  -14.9 °C 4.5 °F /  -15.3 °C 1010.7 in /  34222.3 hPa SW 1.4 mph /  2.3 km/h 3.2 mph /  5.1 km/h 95 % 0.0 in /  0 mm
22:22 5.2 °F /  -14.9 °C 4.6 °F /  -15.2 °C 1010.4 in /  34212.1 hPa SSW 1.4 mph /  2.3 km/h 3.2 mph /  5.1 km/h 96 % 0.0 in /  0 mm
22:24 5.2 °F /  -14.9 °C 4.6 °F /  -15.2 °C 1010.7 in /  34222.3 hPa SSW 1.4 mph /  2.3 km/h 3.2 mph /  5.1 km/h 96 % 0.0 in /  0 mm
22:26 5.2 °F /  -14.9 °C 4.5 °F /  -15.3 °C 1010.4 in /  34212.1 hPa Calm   1.6 mph /  2.6 km/h 95 % 0.0 in /  0 mm
22:30 5.2 °F /  -14.9 °C 4.5 °F /  -15.3 °C 1010.4 in /  34212.1 hPa Calm     95 % 0.0 in /  0 mm
22:32 5.2 °F /  -14.9 °C 4.5 °F /  -15.3 °C 1010.4 in /  34212.1 hPa Calm     95 % 0.0 in /  0 mm
22:33 5.2 °F /  -14.9 °C 4.5 °F /  -15.3 °C 1010.7 in /  34222.3 hPa Calm   1.6 mph /  2.6 km/h 95 % 0.0 in /  0 mm
22:34 5.2 °F /  -14.9 °C 4.5 °F /  -15.3 °C 1010.4 in /  34212.1 hPa Calm   1.6 mph /  2.6 km/h 95 % 0.0 in /  0 mm
22:36 5.2 °F /  -14.9 °C 4.6 °F /  -15.2 °C 1010.4 in /  34212.1 hPa NW 1.4 mph /  2.3 km/h 1.6 mph /  2.6 km/h 96 % 0.0 in /  0 mm
22:38 5.2 °F /  -14.9 °C 4.6 °F /  -15.2 °C 1010.4 in /  34212.1 hPa NNW 3.2 mph /  5.1 km/h 3.2 mph /  5.1 km/h 96 % 0.0 in /  0 mm
22:41 5.2 °F /  -14.9 °C 4.5 °F /  -15.3 °C 1010.4 in /  34212.1 hPa Calm   1.6 mph /  2.6 km/h 95 % 0.0 in /  0 mm
22:42 5.2 °F /  -14.9 °C 4.5 °F /  -15.3 °C 1010.4 in /  34212.1 hPa North 1.4 mph /  2.3 km/h 1.6 mph /  2.6 km/h 95 % 0.0 in /  0 mm
22:44 5.1 °F /  -14.9 °C 4.4 °F /  -15.3 °C 1010.4 in /  34212.1 hPa North 1.4 mph /  2.3 km/h 1.6 mph /  2.6 km/h 95 % 0.0 in /  0 mm
22:48 5.1 °F /  -14.9 °C 4.4 °F /  -15.3 °C 1010.4 in /  34212.1 hPa NNE 1.4 mph /  2.3 km/h 1.6 mph /  2.6 km/h 95 % 0.0 in /  0 mm
22:51 5.0 °F /  -15 °C 4.3 °F /  -15.4 °C 1010.4 in /  34212.1 hPa ENE 1.4 mph /  2.3 km/h 3.2 mph /  5.1 km/h 95 % 0.0 in /  0 mm
22:52 5.0 °F /  -15 °C 4.3 °F /  -15.4 °C 1010.4 in /  34212.1 hPa ENE 1.4 mph /  2.3 km/h 4.8 mph /  7.7 km/h 95 % 0.0 in /  0 mm
22:54 5.0 °F /  -15 °C 4.4 °F /  -15.3 °C 1010.4 in /  34212.1 hPa Calm   3.2 mph /  5.1 km/h 96 % 0.0 in /  0 mm
22:57 5.1 °F /  -14.9 °C 4.5 °F /  -15.3 °C 1010.4 in /  34212.1 hPa Calm   1.6 mph /  2.6 km/h 96 % 0.0 in /  0 mm
23:01 5.1 °F /  -14.9 °C 4.5 °F /  -15.3 °C 1010.7 in /  34222.3 hPa East 1.4 mph /  2.3 km/h 1.6 mph /  2.6 km/h 96 % 0.0 in /  0 mm
23:07 5.1 °F /  -14.9 °C 4.5 °F /  -15.3 °C 1010.7 in /  34222.3 hPa East 1.4 mph /  2.3 km/h 1.6 mph /  2.6 km/h 96 % 0.0 in /  0 mm
23:09 5.1 °F /  -14.9 °C 4.5 °F /  -15.3 °C 1010.4 in /  34212.1 hPa Calm   1.6 mph /  2.6 km/h 96 % 0.0 in /  0 mm
23:16 5.1 °F /  -14.9 °C 4.5 °F /  -15.3 °C 1010.4 in /  34212.1 hPa Calm     96 % 0.0 in /  0 mm
23:21 5.1 °F /  -14.9 °C 4.5 °F /  -15.3 °C 1010.4 in /  34212.1 hPa Calm     96 % 0.0 in /  0 mm
23:25 5.2 °F /  -14.9 °C 4.6 °F /  -15.2 °C 1010.4 in /  34212.1 hPa Calm     96 % 0.0 in /  0 mm
23:28 5.1 °F /  -14.9 °C 4.5 °F /  -15.3 °C 1010.4 in /  34212.1 hPa Calm     96 % 0.0 in /  0 mm
23:29 5.1 °F /  -14.9 °C 4.5 °F /  -15.3 °C 1010.0 in /  34198.6 hPa Calm   3.2 mph /  5.1 km/h 96 % 0.0 in /  0 mm
23:31 5.1 °F /  -14.9 °C 4.5 °F /  -15.3 °C 1010.0 in /  34198.6 hPa Calm     96 % 0.3 in /  7.62 mm
23:33 5.0 °F /  -15 °C 4.4 °F /  -15.3 °C 1010.0 in /  34198.6 hPa Calm   1.6 mph /  2.6 km/h 96 % 0.3 in /  7.62 mm
23:34 5.1 °F /  -14.9 °C 4.5 °F /  -15.3 °C 1010.0 in /  34198.6 hPa Calm   3.2 mph /  5.1 km/h 96 % 0.0 in /  0 mm
23:40 4.9 °F /  -15.1 °C 4.3 °F /  -15.4 °C 1010.0 in /  34198.6 hPa Calm   1.6 mph /  2.6 km/h 96 % 0.3 in /  7.62 mm
23:45 5.1 °F /  -14.9 °C 4.5 °F /  -15.3 °C 1010.0 in /  34198.6 hPa Calm     96 % 0.3 in /  7.62 mm
23:46 5.0 °F /  -15 °C 4.4 °F /  -15.3 °C 1010.0 in /  34198.6 hPa Calm     96 % 0.3 in /  7.62 mm
23:47 5.1 °F /  -14.9 °C 4.5 °F /  -15.3 °C 1010.0 in /  34198.6 hPa Calm     96 % 0.3 in /  7.62 mm
23:51 5.1 °F /  -14.9 °C 4.5 °F /  -15.3 °C 1009.7 in /  34188.4 hPa Calm   1.6 mph /  2.6 km/h 96 % 0.3 in /  7.62 mm
23:59 5.0 °F /  -15 °C 4.4 °F /  -15.3 °C 1009.7 in /  34188.4 hPa WNW 1.4 mph /  2.3 km/h 3.2 mph /  5.1 km/h 96 % 0.3 in /  7.62 mm
Meteo18
Compliments of Weather Underground - 4 mb

Script developed by  Jim McMurry - jmcmurry@mwt.net Adapted for the template by  Wim van der Kuil - Leuven-Template.eu

You find our weather info also at:

European Weather Network

Weather Underground

Equipment we use:

Weather-station
Davis Vue

Weather-program
Meteobridge

Weather-server
Raspberry PI 2 B+

Provider
1 and 1

Davis Vue

Meteobridge

Raspberry PI 2 B+

1 and 1